createdAt,value
2023-05-12T00:00:31.306Z,100.0000
2023-05-12T00:01:32.754Z,100.0000
2023-05-12T00:02:33.349Z,100.0000
2023-05-12T00:03:33.693Z,100.0000
2023-05-12T00:04:34.267Z,100.0000
2023-05-12T00:05:35.053Z,100.0000
2023-05-12T00:06:35.590Z,100.0000
2023-05-12T00:07:35.948Z,100.0000
2023-05-12T00:08:36.545Z,100.0000
2023-05-12T00:09:37.906Z,100.0000
2023-05-12T00:10:38.430Z,100.0000
2023-05-12T00:11:38.681Z,100.0000
2023-05-12T00:12:39.443Z,100.0000
2023-05-12T00:16:40.666Z,100.0000
2023-05-12T00:17:40.916Z,100.0000
2023-05-12T00:18:42.040Z,100.0000
2023-05-12T00:19:43.077Z,100.0000
2023-05-12T00:20:44.023Z,100.0000
2023-05-12T00:21:43.534Z,100.0000
2023-05-12T00:22:44.409Z,100.0000
2023-05-12T00:23:44.782Z,100.0000
2023-05-12T00:24:45.661Z,100.0000
2023-05-12T00:25:45.894Z,100.0000
2023-05-12T00:26:46.530Z,100.0000
2023-05-12T00:27:47.084Z,100.0000
2023-05-12T00:28:47.472Z,100.0000
2023-05-12T00:29:49.402Z,100.0000
2023-05-12T00:33:50.911Z,100.0000
2023-05-12T00:34:51.983Z,100.0000
2023-05-12T00:36:53.212Z,100.0000
2023-05-12T00:41:56.645Z,100.0000
2023-05-12T00:43:57.198Z,100.0000
2023-05-12T00:44:57.582Z,100.0000
2023-05-12T00:45:58.774Z,100.0000
2023-05-12T00:46:59.511Z,100.0000
2023-05-12T00:48:59.918Z,100.0000
2023-05-12T00:50:00.214Z,100.0000
2023-05-12T00:51:00.789Z,100.0000
2023-05-12T00:52:01.425Z,100.0000
2023-05-12T00:53:01.877Z,100.0000
2023-05-12T00:54:02.237Z,100.0000
2023-05-12T00:55:03.666Z,100.0000
2023-05-12T00:56:04.348Z,100.0000
2023-05-12T00:57:04.541Z,100.0000
2023-05-12T00:58:05.403Z,100.0000
2023-05-12T00:59:05.982Z,100.0000
2023-05-12T01:00:07.248Z,100.0000
2023-05-12T01:01:07.899Z,100.0000
2023-05-12T01:02:07.887Z,100.0000
2023-05-12T01:03:08.581Z,100.0000
2023-05-12T01:04:09.694Z,100.0000
2023-05-12T01:09:13.694Z,100.0000
2023-05-12T01:11:14.801Z,100.0000
2023-05-12T01:12:15.687Z,100.0000
2023-05-12T01:13:16.682Z,100.0000
2023-05-12T01:14:17.625Z,100.0000
2023-05-12T01:15:18.521Z,100.0000
2023-05-12T01:16:19.043Z,100.0000
2023-05-12T01:17:19.276Z,100.0000
2023-05-12T01:18:19.936Z,100.0000
2023-05-12T01:19:20.527Z,100.0000
2023-05-12T01:20:21.235Z,100.0000
2023-05-12T01:24:23.772Z,100.0000
2023-05-12T01:25:24.263Z,100.0000
2023-05-12T01:27:25.695Z,100.0000
2023-05-12T01:28:25.952Z,100.0000
2023-05-12T01:29:26.588Z,100.0000
2023-05-12T01:30:26.833Z,100.0000
2023-05-12T01:31:27.962Z,100.0000
2023-05-12T01:32:28.650Z,100.0000
2023-05-12T01:33:29.400Z,100.0000
2023-05-12T01:34:29.768Z,100.0000
2023-05-12T01:35:30.447Z,100.0000
2023-05-12T01:36:30.928Z,100.0000
2023-05-12T01:37:31.017Z,100.0000
2023-05-12T01:38:31.919Z,100.0000
2023-05-12T01:39:32.573Z,100.0000
2023-05-12T01:40:33.319Z,100.0000
2023-05-12T01:41:33.522Z,100.0000
2023-05-12T01:42:34.777Z,100.0000
2023-05-12T01:43:35.234Z,100.0000
2023-05-12T01:44:36.483Z,100.0000
2023-05-12T01:45:37.022Z,100.0000
2023-05-12T01:46:38.438Z,100.0000
2023-05-12T01:47:39.607Z,100.0000
2023-05-12T01:48:39.956Z,100.0000
2023-05-12T01:49:40.688Z,100.0000
2023-05-12T01:50:41.454Z,100.0000
2023-05-12T01:51:42.487Z,100.0000
2023-05-12T01:52:42.882Z,100.0000
2023-05-12T01:53:43.558Z,100.0000
2023-05-12T01:54:43.593Z,100.0000
2023-05-12T01:55:44.803Z,100.0000
2023-05-12T01:56:44.957Z,100.0000
2023-05-12T01:57:46.080Z,100.0000
2023-05-12T01:58:46.621Z,100.0000
2023-05-12T01:59:47.450Z,100.0000
2023-05-12T02:00:48.222Z,100.0000
2023-05-12T02:01:49.565Z,100.0000
2023-05-12T02:02:49.531Z,100.0000
2023-05-12T02:03:49.805Z,100.0000
2023-05-12T02:04:50.977Z,100.0000
2023-05-12T02:05:51.950Z,100.0000
2023-05-12T02:06:52.928Z,100.0000
2023-05-12T02:08:54.345Z,100.0000
2023-05-12T02:09:54.545Z,100.0000
2023-05-12T02:10:56.694Z,100.0000
2023-05-12T02:11:57.543Z,100.0000
2023-05-12T02:12:58.160Z,100.0000
2023-05-12T02:13:58.737Z,100.0000
2023-05-12T02:14:59.676Z,100.0000
2023-05-12T02:15:59.714Z,100.0000
2023-05-12T02:17:00.340Z,100.0000
2023-05-12T02:18:01.140Z,100.0000
2023-05-12T02:19:02.006Z,100.0000
2023-05-12T02:20:02.730Z,100.0000
2023-05-12T02:21:03.635Z,100.0000
2023-05-12T02:22:04.201Z,100.0000
2023-05-12T02:23:04.729Z,100.0000
2023-05-12T02:24:05.925Z,100.0000
2023-05-12T02:25:06.538Z,100.0000
2023-05-12T02:26:06.554Z,100.0000
2023-05-12T02:27:07.345Z,100.0000
2023-05-12T02:28:07.889Z,100.0000
2023-05-12T02:29:08.644Z,100.0000
2023-05-12T02:30:09.313Z,100.0000
2023-05-12T02:31:10.246Z,100.0000
2023-05-12T02:32:11.382Z,100.0000
2023-05-12T02:34:11.858Z,100.0000
2023-05-12T02:38:14.082Z,100.0000
2023-05-12T02:39:15.184Z,100.0000
2023-05-12T02:40:15.255Z,100.0000
2023-05-12T02:41:16.986Z,100.0000
2023-05-12T02:42:17.063Z,100.0000
2023-05-12T02:43:18.489Z,100.0000
2023-05-12T02:44:19.040Z,100.0000
2023-05-12T02:45:19.272Z,100.0000
2023-05-12T02:46:20.051Z,100.0000
2023-05-12T02:47:20.225Z,100.0000
2023-05-12T02:48:20.940Z,100.0000
2023-05-12T02:49:21.631Z,100.0000
2023-05-12T02:50:22.550Z,100.0000
2023-05-12T02:51:22.422Z,100.0000
2023-05-12T02:55:23.940Z,100.0000
2023-05-12T02:56:24.286Z,100.0000
2023-05-12T02:57:25.197Z,100.0000
2023-05-12T02:58:25.537Z,100.0000
2023-05-12T02:59:26.653Z,100.0000
2023-05-12T03:00:27.296Z,100.0000
2023-05-12T03:01:27.532Z,100.0000
2023-05-12T03:02:27.911Z,100.0000
2023-05-12T03:03:28.711Z,100.0000
2023-05-12T03:05:30.110Z,100.0000
2023-05-12T03:08:32.594Z,100.0000
2023-05-12T03:09:33.291Z,100.0000
2023-05-12T03:10:34.030Z,100.0000
2023-05-12T03:11:34.578Z,100.0000
2023-05-12T03:12:34.803Z,100.0000
2023-05-12T03:13:35.132Z,100.0000
2023-05-12T03:14:38.528Z,100.0000
2023-05-12T03:16:37.709Z,100.0000
2023-05-12T03:17:38.059Z,100.0000
2023-05-12T03:18:38.807Z,100.0000
2023-05-12T03:19:39.557Z,100.0000
2023-05-12T03:20:39.721Z,100.0000
2023-05-12T03:21:40.864Z,100.0000
2023-05-12T03:23:41.919Z,100.0000
2023-05-12T03:25:42.706Z,100.0000
2023-05-12T03:26:44.458Z,100.0000
2023-05-12T03:27:45.559Z,100.0000
2023-05-12T03:28:47.037Z,100.0000
2023-05-12T03:29:47.234Z,100.0000
2023-05-12T03:30:47.217Z,100.0000
2023-05-12T03:31:48.403Z,100.0000
2023-05-12T03:33:49.314Z,100.0000
2023-05-12T03:35:51.413Z,100.0000
2023-05-12T03:36:52.056Z,100.0000
2023-05-12T03:37:53.203Z,100.0000
2023-05-12T03:41:54.884Z,100.0000
2023-05-12T03:42:55.105Z,100.0000
2023-05-12T03:43:56.839Z,100.0000
2023-05-12T03:44:57.174Z,100.0000
2023-05-12T03:45:57.750Z,100.0000
2023-05-12T03:46:59.133Z,100.0000
2023-05-12T03:47:59.210Z,100.0000
2023-05-12T03:49:00.041Z,100.0000
2023-05-12T03:50:00.541Z,100.0000
2023-05-12T03:51:01.123Z,100.0000
2023-05-12T03:56:05.253Z,100.0000
2023-05-12T03:57:06.363Z,100.0000
2023-05-12T03:59:07.351Z,100.0000
2023-05-12T04:00:07.434Z,100.0000
2023-05-12T04:01:08.158Z,100.0000
2023-05-12T04:02:09.471Z,100.0000
2023-05-12T04:03:10.008Z,100.0000
2023-05-12T04:04:10.068Z,100.0000
2023-05-12T04:05:10.308Z,100.0000
2023-05-12T04:07:11.513Z,100.0000
2023-05-12T04:08:11.707Z,100.0000
2023-05-12T04:09:12.867Z,100.0000
2023-05-12T04:10:12.950Z,100.0000
2023-05-12T04:11:14.917Z,100.0000
2023-05-12T04:12:15.537Z,100.0000
2023-05-12T04:13:16.726Z,100.0000
2023-05-12T04:15:17.011Z,100.0000
2023-05-12T04:16:17.314Z,100.0000
2023-05-12T04:17:18.637Z,100.0000
2023-05-12T04:18:18.795Z,100.0000
2023-05-12T04:20:20.110Z,100.0000
2023-05-12T04:26:20.547Z,100.0000
2023-05-12T04:27:21.839Z,100.0000
2023-05-12T04:28:22.133Z,100.0000
2023-05-12T04:29:22.182Z,100.0000
2023-05-12T04:30:22.690Z,100.0000
2023-05-12T04:31:23.139Z,100.0000
2023-05-12T04:32:24.757Z,100.0000
2023-05-12T04:33:25.178Z,100.0000
2023-05-12T04:34:25.678Z,100.0000
2023-05-12T04:35:26.360Z,100.0000
2023-05-12T04:36:26.940Z,100.0000
2023-05-12T04:37:27.418Z,100.0000
2023-05-12T04:38:27.792Z,100.0000
2023-05-12T04:42:29.366Z,100.0000
2023-05-12T04:44:30.371Z,100.0000
2023-05-12T04:45:31.538Z,100.0000
2023-05-12T04:46:32.493Z,100.0000
2023-05-12T04:47:32.689Z,100.0000
2023-05-12T04:48:34.183Z,100.0000
2023-05-12T04:49:34.684Z,100.0000
2023-05-12T04:50:35.601Z,100.0000
2023-05-12T04:51:35.812Z,100.0000
2023-05-12T04:52:36.302Z,100.0000
2023-05-12T04:53:37.177Z,100.0000
2023-05-12T04:54:37.635Z,100.0000
2023-05-12T04:55:37.674Z,100.0000
2023-05-12T04:56:38.427Z,100.0000
2023-05-12T04:57:38.912Z,100.0000
2023-05-12T04:58:38.782Z,100.0000
2023-05-12T04:59:41.185Z,100.0000
2023-05-12T05:00:39.928Z,100.0000
2023-05-12T05:01:41.052Z,100.0000
2023-05-12T05:05:43.686Z,99.9304
2023-05-12T05:09:46.451Z,99.6009
2023-05-12T05:10:47.419Z,99.5075
2023-05-12T05:11:48.101Z,99.4024
2023-05-12T05:12:48.735Z,99.2479
2023-05-12T05:13:49.486Z,99.2009
2023-05-12T05:14:50.062Z,99.1274
2023-05-12T05:15:50.278Z,99.0672
2023-05-12T05:16:51.174Z,99.0719
2023-05-12T05:17:52.166Z,98.8586
2023-05-12T05:18:53.018Z,98.7404
2023-05-12T05:19:58.357Z,98.5313
2023-05-12T05:20:58.327Z,98.3950
2023-05-12T05:21:54.618Z,98.4841
2023-05-12T05:22:56.020Z,98.4385
2023-05-12T05:26:58.284Z,97.4315
2023-05-12T05:28:59.801Z,97.2754
2023-05-12T05:30:00.688Z,97.2787
2023-05-12T05:31:01.842Z,97.1106
2023-05-12T05:32:02.536Z,96.6990
2023-05-12T05:33:03.722Z,96.5315
2023-05-12T05:34:04.286Z,96.7333
2023-05-12T05:35:04.987Z,96.7828
2023-05-12T05:36:05.888Z,96.2384
2023-05-12T05:37:07.004Z,95.8075
2023-05-12T05:38:07.657Z,95.7334
2023-05-12T05:39:08.863Z,95.3658
2023-05-12T05:40:09.479Z,95.0587
2023-05-12T05:41:09.642Z,94.7022
2023-05-12T05:42:09.775Z,94.3964
2023-05-12T05:43:10.874Z,94.6798
2023-05-12T05:44:11.936Z,95.1474
2023-05-12T05:45:12.702Z,94.5677
2023-05-12T05:46:13.541Z,94.4960
2023-05-12T05:47:14.124Z,94.0225
2023-05-12T05:48:15.029Z,93.7071
2023-05-12T05:49:16.053Z,93.7821
2023-05-12T05:50:17.055Z,93.4175
2023-05-12T05:51:17.111Z,93.4342
2023-05-12T05:52:17.576Z,93.5036
2023-05-12T05:53:18.481Z,93.0571
2023-05-12T05:54:18.799Z,91.2180
2023-05-12T05:55:19.454Z,91.7482
2023-05-12T05:56:19.488Z,91.6766
2023-05-12T05:58:21.549Z,91.1578
2023-05-12T05:59:22.257Z,92.1223
2023-05-12T06:00:23.294Z,91.9325
2023-05-12T06:01:24.078Z,91.7106
2023-05-12T06:02:24.628Z,91.6914
2023-05-12T06:03:25.358Z,92.3943
2023-05-12T06:04:26.642Z,92.5464
2023-05-12T06:06:27.614Z,93.1548
2023-05-12T06:08:28.406Z,92.5455
2023-05-12T06:09:28.642Z,92.5226
2023-05-12T06:10:29.797Z,92.2267
2023-05-12T06:11:30.445Z,91.8262
2023-05-12T06:12:31.281Z,91.6399
2023-05-12T06:13:31.424Z,92.2541
2023-05-12T06:14:32.491Z,91.9597
2023-05-12T06:15:32.609Z,91.6243
2023-05-12T06:16:34.482Z,91.0672
2023-05-12T06:17:35.493Z,91.0191
2023-05-12T06:18:36.307Z,91.1507
2023-05-12T06:19:37.684Z,91.1041
2023-05-12T06:20:37.936Z,90.4992
2023-05-12T06:21:38.423Z,90.2115
2023-05-12T06:22:38.905Z,89.9455
2023-05-12T06:23:40.075Z,88.5212
2023-05-12T06:24:40.593Z,88.2821
2023-05-12T06:27:43.054Z,87.5690
2023-05-12T06:28:43.649Z,86.3501
2023-05-12T06:29:44.100Z,86.4065
2023-05-12T06:30:44.441Z,86.5295
2023-05-12T06:31:45.293Z,87.3737
2023-05-12T06:32:45.918Z,86.8141
2023-05-12T06:33:47.044Z,86.5092
2023-05-12T06:34:48.161Z,85.9727
2023-05-12T06:35:48.526Z,85.1839
2023-05-12T06:36:49.408Z,85.7531
2023-05-12T06:37:50.266Z,85.1992
2023-05-12T06:38:51.500Z,84.6635
2023-05-12T06:39:52.065Z,84.3500
2023-05-12T06:40:52.964Z,84.3810
2023-05-12T06:41:53.514Z,83.9657
2023-05-12T06:42:54.315Z,84.3990
2023-05-12T06:43:54.681Z,85.3961
2023-05-12T06:44:55.225Z,84.0557
2023-05-12T06:45:55.777Z,84.1291
2023-05-12T06:46:56.927Z,86.1704
2023-05-12T06:47:57.321Z,87.6903
2023-05-12T06:48:57.814Z,88.4017
2023-05-12T06:49:58.829Z,88.1487
2023-05-12T06:50:59.352Z,87.3167
2023-05-12T06:51:59.773Z,86.0976
2023-05-12T06:53:00.984Z,86.2341
2023-05-12T06:54:01.613Z,86.0358
2023-05-12T06:55:02.170Z,86.1337
2023-05-12T06:56:02.997Z,86.2224
2023-05-12T06:57:04.123Z,86.0667
2023-05-12T06:58:05.290Z,86.4970
2023-05-12T06:59:06.633Z,86.5743
2023-05-12T07:00:07.093Z,85.7033
2023-05-12T07:01:08.243Z,83.4449
2023-05-12T07:02:08.287Z,78.9617
2023-05-12T07:08:12.459Z,78.2824
2023-05-12T07:09:13.467Z,76.8740
2023-05-12T07:10:14.444Z,77.3201
2023-05-12T07:11:15.412Z,79.3550
2023-05-12T07:12:16.635Z,79.1322
2023-05-12T07:13:17.704Z,80.2088
2023-05-12T07:14:18.705Z,81.7560
2023-05-12T07:15:19.961Z,83.1055
2023-05-12T07:16:20.395Z,84.4683
2023-05-12T07:17:21.509Z,85.3974
2023-05-12T07:18:22.557Z,85.3826
2023-05-12T07:19:22.566Z,85.4193
2023-05-12T07:20:23.728Z,86.2282
2023-05-12T07:21:24.783Z,85.6717
2023-05-12T07:22:25.644Z,84.4269
2023-05-12T07:23:26.706Z,84.4129
2023-05-12T07:24:27.902Z,84.6203
2023-05-12T07:25:28.453Z,84.5609
2023-05-12T07:29:30.657Z,75.1956
2023-05-12T07:30:31.813Z,74.8089
2023-05-12T07:31:31.851Z,73.3567
2023-05-12T07:32:32.039Z,74.1763
2023-05-12T07:33:33.278Z,70.5668
2023-05-12T07:34:34.263Z,71.6496
2023-05-12T07:35:35.261Z,70.8750
2023-05-12T07:36:36.297Z,74.8564
2023-05-12T07:37:37.277Z,74.3213
2023-05-12T07:38:38.403Z,75.6146
2023-05-12T07:39:39.485Z,77.3402
2023-05-12T07:40:40.814Z,77.0768
2023-05-12T07:41:41.857Z,77.3874
2023-05-12T07:42:42.951Z,76.6239
2023-05-12T07:43:43.803Z,74.8451
2023-05-12T07:44:44.819Z,69.0548
2023-05-12T07:45:45.060Z,68.1846
2023-05-12T07:46:46.210Z,69.8293
2023-05-12T07:47:47.473Z,70.3348
2023-05-12T07:48:47.463Z,71.6143
2023-05-12T07:49:48.438Z,71.7487
2023-05-12T07:50:49.698Z,71.2979
2023-05-12T07:55:52.832Z,73.6079
2023-05-12T07:56:53.876Z,75.9680
2023-05-12T07:57:55.089Z,76.5347
2023-05-12T07:58:56.118Z,74.4367
2023-05-12T07:59:56.131Z,76.5029
2023-05-12T08:00:57.262Z,77.6491
2023-05-12T08:01:58.513Z,76.6501
2023-05-12T08:02:58.757Z,76.2059
2023-05-12T08:13:05.203Z,70.3147
2023-05-12T08:14:05.489Z,71.8901
2023-05-12T08:15:06.583Z,71.9356
2023-05-12T08:16:06.752Z,68.6697
2023-05-12T08:17:07.221Z,67.8038
2023-05-12T08:18:08.394Z,67.9955
2023-05-12T08:19:08.476Z,69.4307
2023-05-12T08:20:08.484Z,67.2700
2023-05-12T08:21:09.527Z,67.2322
2023-05-12T08:22:09.617Z,66.9856
2023-05-12T08:23:10.093Z,67.7338
2023-05-12T08:24:11.149Z,68.1041
2023-05-12T08:25:12.665Z,64.1337
2023-05-12T08:26:12.675Z,66.9924
2023-05-12T08:27:13.875Z,66.8669
2023-05-12T08:28:14.895Z,67.8493
2023-05-12T08:29:15.898Z,70.6232
2023-05-12T08:30:16.713Z,70.7002
2023-05-12T08:31:16.853Z,70.8031
2023-05-12T08:32:16.856Z,71.6921
2023-05-12T08:33:17.952Z,71.0731
2023-05-12T08:34:18.933Z,71.4675
2023-05-12T08:35:21.066Z,71.8031
2023-05-12T08:36:20.928Z,73.0753
2023-05-12T08:37:22.014Z,73.5667
2023-05-12T08:38:22.193Z,75.1305
2023-05-12T08:39:23.108Z,76.5458
2023-05-12T08:40:24.235Z,75.6894
2023-05-12T08:41:25.217Z,74.9709
2023-05-12T08:42:26.245Z,73.3611
2023-05-12T08:43:27.152Z,73.6875
2023-05-12T08:44:27.815Z,72.6300
2023-05-12T08:45:28.825Z,71.8008
2023-05-12T08:46:30.150Z,71.5944
2023-05-12T08:47:30.342Z,71.4877
2023-05-12T08:48:30.425Z,71.6994
2023-05-12T08:49:31.476Z,74.9001
2023-05-12T08:50:31.607Z,74.0800
2023-05-12T08:51:32.826Z,74.4047
2023-05-12T09:02:53.911Z,68.4249
2023-05-12T09:03:47.449Z,66.1699
2023-05-12T09:04:48.625Z,66.7578
2023-05-12T09:05:49.078Z,69.0615
2023-05-12T09:06:50.217Z,70.1550
2023-05-12T09:07:50.629Z,69.8223
2023-05-12T09:08:51.815Z,68.8496
2023-05-12T09:09:52.975Z,69.5023
2023-05-12T09:10:53.847Z,68.6211
2023-05-12T09:11:54.883Z,67.6355
2023-05-12T09:12:55.810Z,66.1063
2023-05-12T09:13:57.074Z,66.5098
2023-05-12T09:14:58.188Z,68.5516
2023-05-12T09:15:59.355Z,67.5763
2023-05-12T09:16:59.418Z,67.7249
2023-05-12T09:18:00.011Z,67.7544
2023-05-12T09:19:00.717Z,67.2384
2023-05-12T09:20:00.769Z,68.6168
2023-05-12T09:21:00.819Z,70.0075
2023-05-12T09:22:01.907Z,68.9450
2023-05-12T09:23:02.972Z,70.6043
2023-05-12T09:24:03.974Z,71.5253
2023-05-12T09:25:05.005Z,72.3293
2023-05-12T09:26:06.077Z,72.9382
2023-05-12T09:27:07.136Z,73.4273
2023-05-12T09:28:08.213Z,73.1910
2023-05-12T09:29:09.939Z,72.9347
2023-05-12T09:30:09.471Z,70.2496
2023-05-12T09:31:09.476Z,71.4746
2023-05-12T09:32:10.929Z,71.2765
2023-05-12T09:33:10.976Z,70.8659
2023-05-12T09:34:12.032Z,67.6186
2023-05-12T09:35:13.152Z,70.1708
2023-05-12T09:36:14.174Z,69.3496
2023-05-12T09:37:16.140Z,68.6368
2023-05-12T09:38:17.152Z,67.3539
2023-05-12T09:39:17.653Z,68.5539
2023-05-12T09:40:18.717Z,67.0486
2023-05-12T09:41:19.583Z,68.8297
2023-05-12T09:42:20.625Z,67.9023
2023-05-12T09:43:21.253Z,66.6262
2023-05-12T09:44:22.439Z,66.0397
2023-05-12T09:45:23.053Z,64.9572
2023-05-12T09:46:24.197Z,60.9568
2023-05-12T09:47:24.238Z,61.6501
2023-05-12T09:48:27.466Z,62.9296
2023-05-12T09:49:26.371Z,65.9085
2023-05-12T09:54:30.404Z,68.0255
2023-05-12T09:55:31.604Z,68.4348
2023-05-12T09:56:32.737Z,68.8489
2023-05-12T09:57:33.785Z,68.6015
2023-05-12T09:58:34.945Z,67.3093
2023-05-12T09:59:35.969Z,67.5061
2023-05-12T10:01:43.956Z,66.6875
2023-05-12T10:02:44.155Z,67.1250
2023-05-12T10:03:44.251Z,67.8983
2023-05-12T10:04:44.415Z,68.4419
2023-05-12T10:05:44.993Z,65.3497
2023-05-12T10:06:45.986Z,66.5561
2023-05-12T10:07:46.985Z,66.6899
2023-05-12T10:08:48.161Z,66.4023
2023-05-12T10:09:49.316Z,65.0879
2023-05-12T10:10:50.475Z,65.6124
2023-05-12T10:11:53.537Z,62.7728
2023-05-12T10:12:52.578Z,61.6126
2023-05-12T10:13:53.538Z,62.3679
2023-05-12T10:14:54.363Z,62.9837
2023-05-12T10:15:55.428Z,64.9176
2023-05-12T10:16:56.745Z,62.2308
2023-05-12T10:17:56.956Z,61.4319
2023-05-12T10:18:58.218Z,59.7193
2023-05-12T10:19:58.293Z,58.6844
2023-05-12T10:20:59.151Z,59.8792
2023-05-12T10:22:00.247Z,58.9436
2023-05-12T10:23:01.165Z,59.7383
2023-05-12T10:24:02.248Z,59.0954
2023-05-12T10:25:03.435Z,57.0307
2023-05-12T10:26:03.973Z,57.9146
2023-05-12T10:27:05.132Z,56.1310
2023-05-12T10:28:07.033Z,58.7236
2023-05-12T10:29:06.877Z,56.6265
2023-05-12T10:30:07.321Z,59.1857
2023-05-12T10:31:07.527Z,52.8754
2023-05-12T10:32:07.498Z,53.2439
2023-05-12T10:34:09.310Z,53.5013
2023-05-12T10:35:10.381Z,55.1176
2023-05-12T10:36:11.176Z,55.1321
2023-05-12T10:37:12.247Z,54.6139
2023-05-12T10:38:13.170Z,55.5797
2023-05-12T10:39:14.292Z,58.4448
2023-05-12T10:40:15.528Z,60.0323
2023-05-12T10:41:16.543Z,57.8375
2023-05-12T10:42:16.754Z,59.5273
2023-05-12T10:53:24.408Z,63.9503
2023-05-12T10:54:24.972Z,60.7251
2023-05-12T10:55:25.374Z,61.3405
2023-05-12T10:56:25.617Z,63.0680
2023-05-12T10:57:26.047Z,62.3335
2023-05-12T10:58:26.770Z,61.6749
2023-05-12T10:59:26.384Z,63.5947
2023-05-12T11:00:26.917Z,62.0793
2023-05-12T11:01:27.660Z,64.1853
2023-05-12T11:02:30.666Z,63.2818
2023-05-12T11:03:33.405Z,63.6046
2023-05-12T11:04:33.889Z,63.3325
2023-05-12T11:05:33.694Z,62.0815
2023-05-12T11:06:34.330Z,60.8520
2023-05-12T11:10:35.790Z,60.9806
2023-05-12T11:11:36.303Z,60.4240
2023-05-12T11:12:36.801Z,59.5746
2023-05-12T11:13:36.814Z,59.9342
2023-05-12T11:14:37.783Z,61.6245
2023-05-12T11:15:38.272Z,62.2883
2023-05-12T11:16:39.542Z,62.2963
2023-05-12T11:17:40.637Z,64.5611
2023-05-12T11:18:40.676Z,63.2680
2023-05-12T11:19:42.052Z,60.9701
2023-05-12T11:20:42.921Z,61.5856
2023-05-12T11:21:44.747Z,63.1857
2023-05-12T11:25:46.033Z,63.2835
2023-05-12T11:26:47.002Z,64.6429
2023-05-12T11:27:48.176Z,64.3819
2023-05-12T11:28:49.250Z,62.3914
2023-05-12T11:29:50.267Z,64.1175
2023-05-12T11:30:53.929Z,61.9160
2023-05-12T11:31:52.395Z,61.6891
2023-05-12T11:32:53.498Z,61.0654
2023-05-12T11:34:08.277Z,62.2351
2023-05-12T11:34:55.811Z,62.3812
2023-05-12T11:35:56.608Z,63.4713
2023-05-12T11:36:57.140Z,64.1810
2023-05-12T11:56:13.156Z,55.1233
2023-05-12T11:57:14.201Z,53.8185
2023-05-12T11:58:15.110Z,53.7072
2023-05-12T11:59:16.148Z,50.0251
2023-05-12T12:00:16.512Z,50.9268
2023-05-12T12:01:17.560Z,49.3536
2023-05-12T12:02:20.043Z,49.0282
2023-05-12T12:03:18.923Z,50.4167
2023-05-12T12:04:19.781Z,48.7356
2023-05-12T12:05:20.083Z,49.5567
2023-05-12T12:06:20.216Z,48.8171
2023-05-12T12:07:21.045Z,49.4812
2023-05-12T12:08:21.327Z,50.1062
2023-05-12T12:09:22.435Z,50.4937
2023-05-12T12:10:23.560Z,47.0496
2023-05-12T12:11:24.552Z,50.0778
2023-05-12T12:12:25.572Z,52.6647
2023-05-12T12:13:27.206Z,51.1684
2023-05-12T12:14:28.340Z,48.7812
2023-05-12T12:15:29.401Z,51.7944
2023-05-12T12:16:30.640Z,49.7292
2023-05-12T12:17:31.008Z,47.2851
2023-05-12T12:18:31.508Z,46.8811
2023-05-12T12:19:32.809Z,47.9936
2023-05-12T12:20:33.673Z,49.2152
2023-05-12T12:21:34.639Z,49.3301
2023-05-12T12:22:35.714Z,51.9387
2023-05-12T12:23:49.951Z,49.6171
2023-05-12T12:24:37.217Z,50.6956
2023-05-12T12:25:38.168Z,50.6280
2023-05-12T12:26:39.663Z,50.8045
2023-05-12T12:27:39.426Z,49.8189
2023-05-12T12:28:40.573Z,49.7277
2023-05-12T12:29:41.533Z,48.6583
2023-05-12T12:30:42.566Z,49.6884
2023-05-12T12:31:43.786Z,50.7680
2023-05-12T12:32:44.924Z,48.0392
2023-05-12T12:33:45.888Z,44.9115
2023-05-12T12:34:47.116Z,44.5705
2023-05-12T12:35:47.486Z,45.0508
2023-05-12T12:36:48.575Z,45.3237
2023-05-12T12:37:48.701Z,45.8650
2023-05-12T12:38:49.536Z,46.9322
2023-05-12T12:39:50.567Z,47.1653
2023-05-12T12:40:51.626Z,45.7084
2023-05-12T12:41:52.595Z,47.1326
2023-05-12T12:42:53.515Z,44.7976
2023-05-12T12:43:54.601Z,46.7053
2023-05-12T12:44:55.645Z,47.6061
2023-05-12T12:45:56.744Z,50.3843
2023-05-12T12:46:57.606Z,49.7553
2023-05-12T12:47:58.032Z,50.9241
2023-05-12T12:48:59.164Z,51.0967
2023-05-12T12:50:00.269Z,51.7129
2023-05-12T12:51:00.312Z,51.2566
2023-05-12T12:52:01.544Z,51.8208
2023-05-12T12:53:02.480Z,51.8075
2023-05-12T12:54:03.401Z,52.2568
2023-05-12T12:55:04.402Z,51.5592
2023-05-12T12:56:05.382Z,51.2236
2023-05-12T12:57:06.461Z,51.0805
2023-05-12T12:58:07.676Z,52.2807
2023-05-12T12:59:08.661Z,49.9516
2023-05-12T13:00:09.792Z,50.7111
2023-05-12T13:01:10.828Z,52.6281
2023-05-12T13:02:12.464Z,50.1213
2023-05-12T13:03:12.048Z,49.3637
2023-05-12T13:04:12.171Z,48.3595
2023-05-12T13:05:13.198Z,50.4822
2023-05-12T13:06:14.069Z,48.1649
2023-05-12T13:07:15.116Z,45.0279
2023-05-12T13:08:16.159Z,44.6862
2023-05-12T13:09:19.668Z,46.1770
2023-05-12T13:10:17.119Z,43.3574
2023-05-12T13:11:18.100Z,45.6853
2023-05-12T13:12:19.137Z,48.8950
2023-05-12T13:13:20.042Z,47.6974
2023-05-12T13:14:21.024Z,48.2531
2023-05-12T13:15:22.403Z,47.7777
2023-05-12T13:16:22.490Z,48.4222
2023-05-12T13:17:22.442Z,50.1904
2023-05-12T13:18:23.811Z,48.7783
2023-05-12T13:19:24.632Z,48.9418
2023-05-12T13:20:25.615Z,48.3351
2023-05-12T13:21:26.518Z,50.4926
2023-05-12T13:22:27.530Z,47.6311
2023-05-12T13:23:28.529Z,48.5752
2023-05-12T13:24:29.580Z,49.1036
2023-05-12T13:25:30.729Z,48.2363
2023-05-12T13:26:31.182Z,47.5189
2023-05-12T13:27:32.190Z,48.9171
2023-05-12T13:28:33.204Z,47.7010
2023-05-12T13:29:34.346Z,48.7153
2023-05-12T13:30:35.542Z,47.8190
2023-05-12T13:31:36.510Z,49.5860
2023-05-12T13:32:37.713Z,53.8941
2023-05-12T13:33:38.872Z,55.1626
2023-05-12T13:34:39.813Z,56.2837
2023-05-12T13:35:40.719Z,55.0376
2023-05-12T13:36:41.709Z,55.2209
2023-05-12T13:37:42.841Z,53.6097
2023-05-12T13:38:43.977Z,53.6624
2023-05-12T13:39:45.043Z,52.4571
2023-05-12T13:40:46.196Z,49.5366
2023-05-12T13:41:47.250Z,46.3752
2023-05-12T13:42:48.185Z,46.2529
2023-05-12T13:43:49.269Z,47.3835
2023-05-12T13:44:50.342Z,46.1739
2023-05-12T13:45:50.557Z,45.0309
2023-05-12T13:46:50.744Z,45.3305
2023-05-12T13:47:51.883Z,45.7123
2023-05-12T13:48:51.858Z,45.1590
2023-05-12T13:49:52.955Z,43.9315
2023-05-12T13:50:54.103Z,41.3055
2023-05-12T13:51:55.239Z,44.2964
2023-05-12T13:52:56.509Z,42.0914
2023-05-12T13:53:57.609Z,41.3635
2023-05-12T13:54:59.168Z,42.5433
2023-05-12T13:55:59.329Z,44.3309
2023-05-12T13:57:00.315Z,44.2765
2023-05-12T13:58:01.299Z,44.9237
2023-05-12T13:59:02.336Z,47.2836
2023-05-12T14:00:03.281Z,45.9103
2023-05-12T14:01:04.986Z,45.9012
2023-05-12T14:02:06.111Z,45.3095
2023-05-12T14:03:07.253Z,45.4531
2023-05-12T14:04:08.510Z,46.5411
2023-05-12T14:05:08.806Z,44.7708
2023-05-12T14:06:09.953Z,44.5766
2023-05-12T14:07:10.668Z,45.7620
2023-05-12T14:08:11.665Z,45.0729
2023-05-12T14:09:12.934Z,41.7255
2023-05-12T14:10:13.722Z,43.9833
2023-05-12T14:11:14.736Z,42.8274
2023-05-12T14:12:15.900Z,44.7181
2023-05-12T14:13:17.034Z,45.4462
2023-05-12T14:14:18.106Z,47.0570
2023-05-12T14:15:32.286Z,49.4752
2023-05-12T14:16:23.882Z,51.7914
2023-05-12T14:17:24.036Z,50.5328
2023-05-12T14:18:24.098Z,49.6556
2023-05-12T14:19:24.203Z,54.9148
2023-05-12T14:20:25.476Z,55.9378
2023-05-12T14:21:25.198Z,52.7196
2023-05-12T14:22:26.813Z,52.3182
2023-05-12T14:23:27.394Z,51.3531
2023-05-12T14:24:28.365Z,52.2038
2023-05-12T14:25:29.501Z,51.9669
2023-05-12T14:26:30.678Z,52.9669
2023-05-12T14:27:31.827Z,54.0640
2023-05-12T14:28:32.351Z,53.1693
2023-05-12T14:29:32.984Z,52.3768
2023-05-12T14:30:33.004Z,53.2715
2023-05-12T14:31:34.212Z,56.2045
2023-05-12T14:32:35.397Z,54.5160
2023-05-12T14:33:36.453Z,54.1347